Time;durP1;ratioP1;P1;durP2;ratioP2;P2;SDS_P1;SDS_P2;PMS_P1;PMS_P2;Temp;Humidity;BMP_temperature;BMP_pressure;BME280_temperature;BME280_humidity;BME280_pressure;Samples;Min_cycle;Max_cycle;Signal;HPM_P1;HPM_P2
2023/10/20 00:00:15;;;;;;;;;;;;;;;12.53;65.84;99310.63;3170852;28;20372;-68
2023/10/20 00:01:46;;;;;;;;;;;;;;;12.49;65.80;99308.31;3168390;28;19924;-69
2023/10/20 00:03:18;;;;;;;;;;;;;;;12.44;66.01;99298.13;3171211;28;20139;-68
2023/10/20 00:04:49;;;;;;;;;;;;;;;12.41;66.22;99293.09;3166953;28;20007;-68
2023/10/20 00:06:21;;;;;;;;;;;;;;;12.40;66.49;99294.03;3161919;28;19928;-68
2023/10/20 00:07:53;;;;;;;;;;;;;;;12.36;66.48;99304.75;3159907;28;19962;-69
2023/10/20 00:09:25;;;;;;;;;;;;;;;12.33;66.60;99302.31;3169416;28;20384;-69
2023/10/20 00:11:01;;;;;;;;;;;;;;;12.29;66.71;99305.13;3162140;28;20430;-69
2023/10/20 00:12:33;;;;;;;;;;;;;;;12.30;66.84;99305.94;3165890;28;19923;-69
2023/10/20 00:14:03;;;;;;;;;;;;;;;12.29;66.54;99315.56;3170556;28;19920;-69
2023/10/20 00:15:35;;;;;;;;;;;;;;;12.31;66.57;99312.03;3170718;28;20006;-69
2023/10/20 00:17:06;;;;;;;;;;;;;;;12.32;66.40;99306.72;3170734;28;19923;-69
2023/10/20 00:18:38;;;;;;;;;;;;;;;12.35;66.51;99313.53;3170358;28;19919;-69
2023/10/20 00:20:10;;;;;;;;;;;;;;;12.38;66.53;99311.56;3160240;28;19919;-69
2023/10/20 00:21:42;;;;;;;;;;;;;;;12.38;66.27;99311.56;3170454;28;20007;-69
2023/10/20 00:23:14;;;;;;;;;;;;;;;12.38;66.08;99308.13;3170996;28;20018;-69
2023/10/20 00:24:45;;;;;;;;;;;;;;;12.40;66.11;99301.88;3171075;28;19920;-69
2023/10/20 00:26:17;;;;;;;;;;;;;;;12.38;66.32;99297.66;3161733;28;20011;-69
2023/10/20 00:27:48;;;;;;;;;;;;;;;12.39;66.06;99300.16;3170480;28;20364;-69
2023/10/20 00:29:19;;;;;;;;;;;;;;;12.40;66.27;99301.88;3170292;28;20387;-69
2023/10/20 00:30:50;;;;;;;;;;;;;;;12.40;66.03;99301.03;3171066;28;19931;-69
2023/10/20 00:32:21;;;;;;;;;;;;;;;12.38;66.27;99298.50;3145443;28;19974;-69
2023/10/20 00:33:53;;;;;;;;;;;;;;;12.37;66.12;99302.06;3155339;28;20316;-68
2023/10/20 00:35:25;;;;;;;;;;;;;;;12.37;66.25;99301.22;3167307;28;19971;-68
2023/10/20 00:36:56;;;;;;;;;;;;;;;12.37;66.02;99293.38;3153437;28;20383;-68
2023/10/20 00:38:27;;;;;;;;;;;;;;;12.35;66.35;99303.06;3161774;28;19989;-68
2023/10/20 00:39:58;;;;;;;;;;;;;;;12.36;66.27;99307.34;3166284;28;19928;-68
2023/10/20 00:41:29;;;;;;;;;;;;;;;12.34;66.36;99297.03;3166199;28;19920;-68
2023/10/20 00:43:00;;;;;;;;;;;;;;;12.34;66.04;99302.25;3170554;28;19926;-68
2023/10/20 00:44:31;;;;;;;;;;;;;;;12.34;66.08;99299.63;3170269;28;19931;-68
2023/10/20 00:46:04;;;;;;;;;;;;;;;12.34;66.10;99301.41;3170404;28;19923;-68
2023/10/20 00:47:36;;;;;;;;;;;;;;;12.32;66.37;99295.44;3167151;28;19924;-68
2023/10/20 00:49:08;;;;;;;;;;;;;;;12.32;66.25;99301.50;3165975;28;19924;-69
2023/10/20 00:50:41;;;;;;;;;;;;;;;12.28;66.60;99298.22;3170089;28;19952;-68
2023/10/20 00:52:12;;;;;;;;;;;;;;;12.24;66.34;99295.88;3163566;28;19924;-69
2023/10/20 00:53:43;;;;;;;;;;;;;;;12.17;66.58;99292.81;3170120;28;19924;-69
2023/10/20 00:55:14;;;;;;;;;;;;;;;12.06;66.81;99282.16;3170603;28;19924;-69
2023/10/20 00:56:47;;;;;;;;;;;;;;;12.10;66.94;99295.84;3152407;28;19919;-69
2023/10/20 00:58:18;;;;;;;;;;;;;;;12.05;67.22;99291.75;3157595;28;19925;-69
2023/10/20 00:59:49;;;;;;;;;;;;;;;11.98;67.56;99285.25;3168495;28;19920;-69
2023/10/20 01:01:21;;;;;;;;;;;;;;;11.93;67.88;99281.22;3164918;28;19973;-69
2023/10/20 01:02:53;;;;;;;;;;;;;;;11.86;68.33;99280.75;3166441;28;19930;-68
2023/10/20 01:04:23;;;;;;;;;;;;;;;11.78;68.45;99272.50;3166668;28;20022;-69
2023/10/20 01:05:56;;;;;;;;;;;;;;;11.74;68.48;99273.59;3162288;28;20414;-69
2023/10/20 01:07:27;;;;;;;;;;;;;;;11.72;68.64;99275.47;3157092;28;19924;-69
2023/10/20 01:08:59;;;;;;;;;;;;;;;11.71;68.56;99272.03;3164659;28;20100;-69
2023/10/20 01:10:29;;;;;;;;;;;;;;;11.69;68.96;99271.25;3168594;28;19963;-68
2023/10/20 01:12:01;;;;;;;;;;;;;;;11.66;68.97;99276.66;3155403;28;20614;-68
2023/10/20 01:13:31;;;;;;;;;;;;;;;11.62;68.85;99277.75;3170284;28;19977;-68
2023/10/20 01:15:05;;;;;;;;;;;;;;;11.59;69.24;99270.97;3168673;28;20361;-68
2023/10/20 01:16:35;;;;;;;;;;;;;;;11.59;69.23;99283.13;3160615;28;19924;-68
2023/10/20 01:18:09;;;;;;;;;;;;;;;11.60;69.19;99280.44;3166160;28;19920;-68
2023/10/20 01:19:40;;;;;;;;;;;;;;;11.62;69.07;99275.13;3170335;28;19927;-68
2023/10/20 01:21:13;;;;;;;;;;;;;;;11.66;69.00;99268.84;3169959;28;20329;-68
2023/10/20 01:22:44;;;;;;;;;;;;;;;11.68;68.73;99272.16;3170419;28;19943;-68
2023/10/20 01:24:17;;;;;;;;;;;;;;;11.69;68.51;99276.47;3170558;28;20285;-68
2023/10/20 01:25:48;;;;;;;;;;;;;;;11.71;68.33;99276.38;3163771;28;20396;-68
2023/10/20 01:27:19;;;;;;;;;;;;;;;11.73;68.49;99272.75;3168396;28;19930;-68
2023/10/20 01:28:50;;;;;;;;;;;;;;;11.77;68.17;99278.63;3170396;28;19919;-68
2023/10/20 01:30:22;;;;;;;;;;;;;;;11.78;68.12;99277.72;3168268;28;19924;-69
2023/10/20 01:31:53;;;;;;;;;;;;;;;11.80;68.21;99278.44;3169576;28;19924;-68
2023/10/20 01:33:25;;;;;;;;;;;;;;;11.78;68.00;99273.34;3166512;28;19919;-68
2023/10/20 01:34:56;;;;;;;;;;;;;;;11.76;68.33;99272.56;3170384;28;20702;-68
2023/10/20 01:36:27;;;;;;;;;;;;;;;11.76;68.22;99269.13;3159532;28;20309;-68
2023/10/20 01:37:58;;;;;;;;;;;;;;;11.76;67.92;99271.72;3159650;28;19924;-68
2023/10/20 01:39:30;;;;;;;;;;;;;;;11.73;68.33;99267.53;3162757;28;19928;-68
2023/10/20 01:41:02;;;;;;;;;;;;;;;11.72;68.13;99271.09;3166993;28;19924;-68
2023/10/20 01:42:32;;;;;;;;;;;;;;;11.73;68.20;99269.31;3169863;28;19966;-68
2023/10/20 01:44:04;;;;;;;;;;;;;;;11.72;67.99;99268.47;3163277;28;20309;-68
2023/10/20 01:45:35;;;;;;;;;;;;;;;11.71;68.28;99263.31;3169735;28;19943;-68
2023/10/20 01:47:06;;;;;;;;;;;;;;;11.71;68.00;99265.94;3165364;28;20393;-68
2023/10/20 01:48:38;;;;;;;;;;;;;;;11.69;68.36;99270.44;3167542;28;19969;-68
2023/10/20 01:50:09;;;;;;;;;;;;;;;11.63;68.50;99283.81;3169923;28;19985;-68
2023/10/20 01:51:40;;;;;;;;;;;;;;;11.61;68.66;99283.91;3165432;28;19998;-69
2023/10/20 01:53:11;;;;;;;;;;;;;;;11.61;68.71;99292.56;3168148;28;19924;-68
2023/10/20 01:54:44;;;;;;;;;;;;;;;11.58;68.67;99287.50;3154856;28;19970;-68
2023/10/20 01:56:15;;;;;;;;;;;;;;;11.57;68.70;99285.84;3149699;28;20313;-68
2023/10/20 01:57:46;;;;;;;;;;;;;;;11.58;68.54;99284.06;3159492;28;19928;-68
2023/10/20 01:59:17;;;;;;;;;;;;;;;11.56;68.66;99286.75;3167266;28;19946;-68
2023/10/20 02:00:49;;;;;;;;;;;;;;;11.55;68.47;99287.69;3172572;28;19923;-69
2023/10/20 02:02:19;;;;;;;;;;;;;;;11.53;68.69;99280.88;3168009;28;20404;-69
2023/10/20 02:03:51;;;;;;;;;;;;;;;11.49;68.87;99282.84;3172059;28;19920;-68
2023/10/20 02:05:23;;;;;;;;;;;;;;;11.47;69.12;99284.69;3168472;28;19926;-68
2023/10/20 02:06:53;;;;;;;;;;;;;;;11.45;69.13;99280.50;3160773;28;19919;-68
2023/10/20 02:08:25;;;;;;;;;;;;;;;11.43;69.01;99279.75;3161457;28;19926;-68
2023/10/20 02:09:57;;;;;;;;;;;;;;;11.42;69.24;99286.72;3172319;28;19924;-68
2023/10/20 02:11:28;;;;;;;;;;;;;;;11.38;69.27;99278.22;3158271;28;20357;-68
2023/10/20 02:12:59;;;;;;;;;;;;;;;11.31;69.65;99273.47;3172458;28;20289;-68
2023/10/20 02:14:31;;;;;;;;;;;;;;;11.25;69.86;99274.63;3172267;28;19926;-68
2023/10/20 02:16:01;;;;;;;;;;;;;;;11.21;70.58;99278.34;3169079;28;20315;-69
2023/10/20 02:17:33;;;;;;;;;;;;;;;11.14;70.81;99277.84;3170315;28;20030;-69
2023/10/20 02:19:04;;;;;;;;;;;;;;;11.10;70.86;99271.13;3172544;28;20253;-69
2023/10/20 02:20:36;;;;;;;;;;;;;;;11.07;71.24;99275.69;3172154;28;19919;-69
2023/10/20 02:22:07;;;;;;;;;;;;;;;11.04;71.46;99261.03;3171467;28;19927;-69
2023/10/20 02:23:39;;;;;;;;;;;;;;;11.04;71.26;99266.25;3172194;28;19919;-69
2023/10/20 02:25:13;;;;;;;;;;;;;;;10.97;71.60;99251.88;3172339;28;20405;-69
2023/10/20 02:26:45;;;;;;;;;;;;;;;10.98;71.64;99266.59;3162412;28;19977;-69
2023/10/20 02:28:17;;;;;;;;;;;;;;;10.98;71.86;99264.00;3171606;28;20010;-68
2023/10/20 02:29:48;;;;;;;;;;;;;;;11.01;71.51;99265.59;3172222;28;19946;-69
2023/10/20 02:31:19;;;;;;;;;;;;;;;11.04;71.31;99263.66;3167882;28;19920;-69
2023/10/20 02:32:50;;;;;;;;;;;;;;;11.07;71.28;99258.28;3172328;28;19920;-68
2023/10/20 02:34:22;;;;;;;;;;;;;;;11.08;71.00;99256.50;3171923;28;19923;-68
2023/10/20 02:35:55;;;;;;;;;;;;;;;11.08;70.85;99244.31;3168869;28;20384;-69
2023/10/20 02:37:26;;;;;;;;;;;;;;;11.09;71.03;99243.41;3155803;28;20005;-68
2023/10/20 02:38:57;;;;;;;;;;;;;;;11.09;70.93;99235.59;3163911;28;20497;-69
2023/10/20 02:40:29;;;;;;;;;;;;;;;11.09;70.92;99242.53;3159266;28;20246;-69
2023/10/20 02:42:01;;;;;;;;;;;;;;;11.10;70.64;99242.47;3147042;28;19927;-69
2023/10/20 02:43:31;;;;;;;;;;;;;;;11.08;70.55;99223.47;3170142;28;19924;-69
2023/10/20 02:45:09;;;;;;;;;;;;;;;11.08;70.93;99230.44;3169556;28;20365;-69
2023/10/20 02:46:39;;;;;;;;;;;;;;;11.05;71.00;99235.81;3168940;28;20376;-69
2023/10/20 02:48:11;;;;;;;;;;;;;;;11.05;70.75;99228.84;3172106;28;19920;-69
2023/10/20 02:49:42;;;;;;;;;;;;;;;11.05;70.82;99231.44;3168798;28;20377;-69
2023/10/20 02:51:14;;;;;;;;;;;;;;;11.08;70.60;99227.84;3167243;28;20297;-69
2023/10/20 02:52:45;;;;;;;;;;;;;;;11.10;70.41;99241.63;3165924;28;19924;-69
2023/10/20 02:54:16;;;;;;;;;;;;;;;11.13;70.39;99238.84;3169092;28;19927;-69
2023/10/20 02:55:49;;;;;;;;;;;;;;;11.13;70.34;99231.88;3165827;28;19924;-69
2023/10/20 02:57:20;;;;;;;;;;;;;;;11.15;70.22;99222.19;3160225;28;19920;-69
2023/10/20 02:58:52;;;;;;;;;;;;;;;11.15;70.28;99221.34;3171727;28;19931;-69
2023/10/20 03:00:22;;;;;;;;;;;;;;;11.14;70.27;99224.88;3167366;28;19919;-69
2023/10/20 03:01:55;;;;;;;;;;;;;;;11.14;70.44;99228.31;3171674;28;19933;-69
2023/10/20 03:03:26;;;;;;;;;;;;;;;11.16;70.45;99226.47;3171449;28;19974;-69
2023/10/20 03:04:58;;;;;;;;;;;;;;;11.19;70.11;99222.03;3167576;28;20380;-69
2023/10/20 03:06:28;;;;;;;;;;;;;;;11.20;70.01;99226.31;3155915;28;19924;-69
2023/10/20 03:08:00;;;;;;;;;;;;;;;11.20;70.15;99227.13;3161482;27;20010;-68
2023/10/20 03:09:31;;;;;;;;;;;;;;;11.21;69.89;99221.03;3170167;28;19919;-68
2023/10/20 03:11:04;;;;;;;;;;;;;;;11.21;70.08;99220.16;3161456;28;20282;-68
2023/10/20 03:12:35;;;;;;;;;;;;;;;11.21;69.91;99228.84;3168222;28;19970;-68
2023/10/20 03:14:06;;;;;;;;;;;;;;;11.18;70.17;99225.53;3171036;28;19924;-69
2023/10/20 03:15:37;;;;;;;;;;;;;;;11.16;69.94;99234.28;3168155;28;19930;-68
2023/10/20 03:17:09;;;;;;;;;;;;;;;11.15;69.92;99232.63;3171633;28;19931;-69
2023/10/20 03:18:41;;;;;;;;;;;;;;;11.12;70.10;99232.81;3171628;28;19926;-69
2023/10/20 03:20:14;;;;;;;;;;;;;;;11.14;70.11;99233.53;3171589;28;19924;-69
2023/10/20 03:21:47;;;;;;;;;;;;;;;11.14;70.25;99228.31;3167787;27;19920;-68
2023/10/20 03:23:18;;;;;;;;;;;;;;;11.13;70.19;99239.69;3164792;28;19924;-68
2023/10/20 03:24:49;;;;;;;;;;;;;;;11.09;70.41;99227.75;3171435;28;19920;-69
2023/10/20 03:26:22;;;;;;;;;;;;;;;11.07;70.30;99223.56;3164504;28;19923;-68
2023/10/20 03:27:54;;;;;;;;;;;;;;;11.07;70.30;99226.16;3171424;28;19930;-68
2023/10/20 03:29:25;;;;;;;;;;;;;;;11.06;70.31;99224.47;3166879;28;19950;-68
2023/10/20 03:30:56;;;;;;;;;;;;;;;11.06;70.44;99227.06;3171163;28;19924;-69
2023/10/20 03:32:28;;;;;;;;;;;;;;;11.03;70.26;99235.94;3170817;28;19920;-68
2023/10/20 03:33:58;;;;;;;;;;;;;;;11.02;70.45;99239.44;3171081;28;19924;-69
2023/10/20 03:35:30;;;;;;;;;;;;;;;11.00;70.53;99233.47;3170532;28;20296;-68
2023/10/20 03:37:00;;;;;;;;;;;;;;;10.99;70.58;99239.59;3153174;28;19924;-69
2023/10/20 03:38:32;;;;;;;;;;;;;;;10.99;70.43;99226.59;3164334;28;20419;-69
2023/10/20 03:40:03;;;;;;;;;;;;;;;11.01;70.26;99232.56;3169249;28;19938;-68
2023/10/20 03:41:36;;;;;;;;;;;;;;;11.03;70.24;99228.13;3169289;28;19924;-68
2023/10/20 03:43:08;;;;;;;;;;;;;;;11.06;70.39;99232.28;3171333;28;19992;-68
2023/10/20 03:44:39;;;;;;;;;;;;;;;11.06;70.21;99235.75;3162431;28;19920;-69
2023/10/20 03:46:13;;;;;;;;;;;;;;;11.06;70.39;99238.34;3171014;28;19919;-68
2023/10/20 03:47:45;;;;;;;;;;;;;;;11.06;70.08;99243.56;3159063;28;19943;-67
2023/10/20 03:49:15;;;;;;;;;;;;;;;11.04;70.36;99242.81;3168270;28;20022;-68
2023/10/20 03:50:48;;;;;;;;;;;;;;;11.03;70.36;99243.75;3164653;28;19924;-68
2023/10/20 03:52:20;;;;;;;;;;;;;;;11.03;70.22;99241.13;3157873;28;19928;-68
2023/10/20 03:53:52;;;;;;;;;;;;;;;11.03;70.46;99238.53;3150747;28;19985;-68
2023/10/20 03:55:24;;;;;;;;;;;;;;;11.02;70.26;99236.84;3170989;28;19927;-68
2023/10/20 03:56:56;;;;;;;;;;;;;;;11.01;70.32;99231.72;3152765;28;20368;-68
2023/10/20 03:58:29;;;;;;;;;;;;;;;10.97;70.44;99232.81;3164699;28;19993;-68
2023/10/20 04:00:14;;;;;;;;;;;;;;;10.93;70.64;99237.34;3171305;28;19919;-68
2023/10/20 04:01:46;;;;;;;;;;;;;;;10.89;70.79;99236.69;3170758;28;20449;-69
2023/10/20 04:03:16;;;;;;;;;;;;;;;10.91;70.75;99244.41;3170885;28;19932;-70
2023/10/20 04:04:48;;;;;;;;;;;;;;;10.90;70.66;99245.34;3157892;28;19920;-70
2023/10/20 04:06:20;;;;;;;;;;;;;;;10.83;70.76;99236.19;3161890;28;19962;-70
2023/10/20 04:07:50;;;;;;;;;;;;;;;10.87;70.94;99253.31;3159149;28;20681;-70
2023/10/20 04:09:22;;;;;;;;;;;;;;;10.83;71.01;99250.06;3168412;28;19935;-70
2023/10/20 04:10:55;;;;;;;;;;;;;;;10.84;71.01;99243.06;3162899;28;20448;-69
2023/10/20 04:12:28;;;;;;;;;;;;;;;10.84;70.96;99256.94;3163658;28;20426;-68
2023/10/20 04:14:00;;;;;;;;;;;;;;;10.84;71.04;99248.28;3162467;28;19927;-69
2023/10/20 04:15:36;;;;;;;;;;;;;;;10.81;71.06;99245.84;3170814;28;19919;-69
2023/10/20 04:17:07;;;;;;;;;;;;;;;10.78;71.36;99251.22;3171128;28;19924;-69
2023/10/20 04:18:38;;;;;;;;;;;;;;;10.73;71.71;99248.03;3168764;28;19919;-68
2023/10/20 04:20:15;;;;;;;;;;;;;;;10.73;71.70;99250.63;3170288;28;19919;-68
2023/10/20 04:21:46;;;;;;;;;;;;;;;10.69;71.58;99244.75;3170553;27;19965;-68
2023/10/20 04:23:17;;;;;;;;;;;;;;;10.63;72.01;99240.72;3170734;28;19919;-68
2023/10/20 04:24:49;;;;;;;;;;;;;;;10.57;72.50;99245.41;3170775;28;19919;-68
2023/10/20 04:26:20;;;;;;;;;;;;;;;10.50;72.83;99238.84;3162577;28;20332;-68
2023/10/20 04:27:57;;;;;;;;;;;;;;;10.48;73.00;99246.75;3165887;28;19967;-68
2023/10/20 04:29:34;;;;;;;;;;;;;;;10.48;72.82;99259.78;3170380;28;19920;-69
2023/10/20 04:42:43;;;;;;;;;;;;;;;10.56;72.05;99243.72;3158339;28;19923;-69
2023/10/20 04:48:00;;;;;;;;;;;;;;;10.59;72.24;99247.03;3152488;28;19919;-67
2023/10/20 04:51:27;;;;;;;;;;;;;;;10.61;71.73;99246.91;3149153;28;19970;-66
2023/10/20 04:53:12;;;;;;;;;;;;;;;10.61;71.81;99252.13;3167829;28;19927;-66
2023/10/20 04:54:45;;;;;;;;;;;;;;;10.60;71.78;99258.28;3170038;28;19990;-67
2023/10/20 04:58:12;;;;;;;;;;;;;;;10.57;71.77;99248.03;3157755;28;19945;-69
2023/10/20 04:59:44;;;;;;;;;;;;;;;10.55;71.85;99250.69;3152718;28;19942;-68
2023/10/20 05:01:22;;;;;;;;;;;;;;;10.53;72.06;99254.31;3157323;28;19924;-69
2023/10/20 05:02:58;;;;;;;;;;;;;;;10.51;71.75;99251.78;3169140;28;19920;-68
2023/10/20 05:04:36;;;;;;;;;;;;;;;10.49;71.97;99251.03;3169581;28;19920;-64
2023/10/20 05:06:20;;;;;;;;;;;;;;;10.48;71.87;99259.78;3155997;28;20317;-65
2023/10/20 05:07:51;;;;;;;;;;;;;;;10.46;71.71;99256.41;3159893;28;19950;-63
2023/10/20 05:09:25;;;;;;;;;;;;;;;10.42;71.83;99258.31;3168722;28;19998;-66
2023/10/20 05:10:56;;;;;;;;;;;;;;;10.40;71.93;99254.97;3162044;28;19982;-68
2023/10/20 05:12:28;;;;;;;;;;;;;;;10.40;71.79;99259.31;3162535;28;20049;-68
2023/10/20 05:13:59;;;;;;;;;;;;;;;10.39;71.82;99252.44;3166420;28;20415;-66
2023/10/20 05:15:33;;;;;;;;;;;;;;;10.33;71.84;99247.56;3165636;28;19923;-68
2023/10/20 05:17:10;;;;;;;;;;;;;;;10.27;72.03;99253.94;3162202;28;19967;-65
2023/10/20 05:18:41;;;;;;;;;;;;;;;10.23;72.56;99250.63;3157899;28;19935;-65
2023/10/20 05:20:13;;;;;;;;;;;;;;;10.21;72.75;99257.66;3157789;28;19994;-64
2023/10/20 05:21:44;;;;;;;;;;;;;;;10.23;72.35;99258.44;3156931;28;19969;-69
2023/10/20 05:23:16;;;;;;;;;;;;;;;10.26;nan;99254.81;3157869;28;19928;-67
2023/10/20 05:24:47;;;;;;;;;;;;;;;10.29;72.25;99259.88;3157982;28;19970;-67
2023/10/20 05:26:18;;;;;;;;;;;;;;;10.34;72.15;99264.84;3154915;28;19920;-71
2023/10/20 05:27:50;;;;;;;;;;;;;;;10.39;72.25;99262.88;3163824;28;19920;-71
2023/10/20 05:29:21;;;;;;;;;;;;;;;10.41;72.16;99247.97;3158104;28;19928;-70
2023/10/20 05:30:53;;;;;;;;;;;;;;;10.44;72.11;99251.28;3170377;28;20312;-72
2023/10/20 05:32:25;;;;;;;;;;;;;;;10.45;71.98;99254.72;3169531;27;20292;-71
2023/10/20 05:33:56;;;;;;;;;;;;;;;10.46;71.73;99257.22;3167024;28;19993;-65
2023/10/20 05:35:29;;;;;;;;;;;;;;;10.47;71.99;99265.91;3158867;28;19920;-64
2023/10/20 05:37:00;;;;;;;;;;;;;;;10.49;71.88;99274.44;3154176;28;19936;-63
2023/10/20 05:38:31;;;;;;;;;;;;;;;10.50;71.69;99257.94;3164832;28;19985;-67
2023/10/20 05:40:03;;;;;;;;;;;;;;;10.53;71.68;99262.97;3147814;28;20415;-68
2023/10/20 05:41:35;;;;;;;;;;;;;;;10.55;71.53;99261.09;3147996;28;19963;-69
2023/10/20 05:43:05;;;;;;;;;;;;;;;10.61;71.71;99257.34;3158498;28;19920;-68
2023/10/20 05:44:47;;;;;;;;;;;;;;;10.65;71.77;99254.50;3167479;28;19967;-69
2023/10/20 05:46:19;;;;;;;;;;;;;;;10.70;71.77;99252.47;3170019;28;19919;-64
2023/10/20 05:47:51;;;;;;;;;;;;;;;10.76;71.82;99251.28;3169600;28;19930;-65
2023/10/20 05:49:21;;;;;;;;;;;;;;;10.82;71.50;99250.94;3166831;28;20312;-67
2023/10/20 05:50:57;;;;;;;;;;;;;;;10.87;71.73;99261.13;3169639;28;19920;-66
2023/10/20 05:52:28;;;;;;;;;;;;;;;10.92;71.55;99256.53;3162429;28;19966;-67
2023/10/20 05:53:59;;;;;;;;;;;;;;;10.99;71.63;99246.59;3159971;28;19927;-64
2023/10/20 05:55:30;;;;;;;;;;;;;;;11.06;71.44;99247.91;3164867;28;20140;-63
2023/10/20 05:57:03;;;;;;;;;;;;;;;11.10;71.38;99260.69;3155944;28;19923;-65
2023/10/20 05:58:34;;;;;;;;;;;;;;;11.13;71.31;99254.47;3164720;28;19919;-64
2023/10/20 06:00:06;;;;;;;;;;;;;;;11.18;71.54;99251.59;3170317;28;20014;-66
2023/10/20 06:01:38;;;;;;;;;;;;;;;11.25;71.28;99247.75;3169501;28;20321;-68
2023/10/20 06:03:11;;;;;;;;;;;;;;;11.33;71.29;99261.19;3169851;28;20312;-65
2023/10/20 06:04:42;;;;;;;;;;;;;;;11.41;71.44;99260.72;3167403;28;19927;-64
2023/10/20 06:06:13;;;;;;;;;;;;;;;11.46;71.14;99263.94;3148004;28;20385;-67
2023/10/20 06:07:44;;;;;;;;;;;;;;;11.53;71.31;99257.41;3152879;28;19920;-65
2023/10/20 06:09:16;;;;;;;;;;;;;;;11.60;71.17;99253.53;3158847;28;20171;-66
2023/10/20 06:10:46;;;;;;;;;;;;;;;11.67;71.44;99257.47;3160801;28;19986;-66
2023/10/20 06:12:18;;;;;;;;;;;;;;;11.77;71.29;99263.84;3170328;28;20470;-64
2023/10/20 06:13:49;;;;;;;;;;;;;;;11.89;71.20;99259.69;3170251;28;19950;-67
2023/10/20 06:15:21;;;;;;;;;;;;;;;12.02;71.01;99260.63;3169574;28;19946;-65
2023/10/20 06:16:53;;;;;;;;;;;;;;;12.13;70.90;99269.59;3170045;28;19927;-64
2023/10/20 06:18:24;;;;;;;;;;;;;;;12.25;70.53;99276.69;3169953;28;20007;-65
2023/10/20 06:19:55;;;;;;;;;;;;;;;12.37;70.59;99275.94;3169504;28;20362;-65
2023/10/20 06:21:27;;;;;;;;;;;;;;;12.50;70.06;99281.25;3169792;28;19923;-63
2023/10/20 06:22:58;;;;;;;;;;;;;;;12.61;69.86;99272.75;3170205;28;19920;-63
2023/10/20 06:24:29;;;;;;;;;;;;;;;12.65;69.88;99279.47;3167762;28;19920;-64
2023/10/20 06:26:01;;;;;;;;;;;;;;;12.71;70.00;99279.09;3149221;28;20333;-63
2023/10/20 06:27:31;;;;;;;;;;;;;;;12.81;69.85;99271.50;3155637;28;20326;-62
2023/10/20 06:29:17;;;;;;;;;;;;;;;12.91;69.65;99276.06;3170200;28;19952;-64
2023/10/20 06:30:49;;;;;;;;;;;;;;;13.06;69.28;99282.09;3170268;28;19920;-66
2023/10/20 06:32:25;;;;;;;;;;;;;;;13.22;69.11;99279.31;3169890;28;19943;-65
2023/10/20 06:34:00;;;;;;;;;;;;;;;13.40;69.01;99279.97;3169774;28;19924;-65
2023/10/20 06:35:33;;;;;;;;;;;;;;;13.54;68.82;99285.13;3163481;28;19974;-64
2023/10/20 06:37:08;;;;;;;;;;;;;;;13.75;68.75;99287.25;3151277;28;20026;-63
2023/10/20 06:38:45;;;;;;;;;;;;;;;14.03;68.72;99292.34;3163276;28;19952;-65
2023/10/20 06:40:15;;;;;;;;;;;;;;;14.27;68.22;99295.06;3162306;28;19924;-63
2023/10/20 06:41:47;;;;;;;;;;;;;;;14.51;67.92;99289.06;3145897;28;20030;-63
2023/10/20 06:43:19;;;;;;;;;;;;;;;14.74;67.61;99283.09;3166439;28;20336;-64
2023/10/20 06:44:51;;;;;;;;;;;;;;;15.00;67.17;99275.16;3171903;28;20388;-65
2023/10/20 06:46:23;;;;;;;;;;;;;;;15.27;66.75;99282.00;3171903;28;19927;-64
2023/10/20 06:47:55;;;;;;;;;;;;;;;15.48;66.28;99285.66;3171744;28;19949;-64
2023/10/20 06:49:26;;;;;;;;;;;;;;;15.75;65.76;99289.84;3169345;28;20428;-64
2023/10/20 06:50:57;;;;;;;;;;;;;;;16.00;65.19;99287.06;3171965;28;20315;-65
2023/10/20 06:52:29;;;;;;;;;;;;;;;16.28;64.58;99283.16;3164505;28;19920;-64
2023/10/20 06:54:00;;;;;;;;;;;;;;;16.54;63.90;99283.75;3163494;28;19927;-63
2023/10/20 06:55:31;;;;;;;;;;;;;;;16.80;63.35;99276.50;3163732;28;19992;-63
2023/10/20 06:57:02;;;;;;;;;;;;;;;16.97;62.67;99274.28;3155604;28;20006;-63
2023/10/20 06:58:34;;;;;;;;;;;;;;;17.25;62.32;99280.81;3163153;28;19939;-63
2023/10/20 07:00:16;;;;;;;;;;;;;;;17.44;61.65;99288.88;3159159;28;19934;-63
2023/10/20 07:01:47;;;;;;;;;;;;;;;17.72;60.81;99295.34;3166864;28;20336;-62
2023/10/20 07:03:21;;;;;;;;;;;;;;;18.01;60.50;99288.63;3171944;28;19920;-63
2023/10/20 07:04:52;;;;;;;;;;;;;;;18.35;60.09;99297.16;3167648;28;20455;-63
2023/10/20 07:06:23;;;;;;;;;;;;;;;18.50;58.49;99292.38;3149498;28;19924;-63
2023/10/20 07:07:55;;;;;;;;;;;;;;;18.48;57.92;99292.47;3155889;28;20010;-66
2023/10/20 07:09:26;;;;;;;;;;;;;;;18.49;57.43;99296.81;3148750;28;19947;-63
2023/10/20 07:11:01;;;;;;;;;;;;;;;18.69;57.36;99297.69;3162971;28;19921;-65
2023/10/20 07:12:32;;;;;;;;;;;;;;;18.97;56.93;99297.97;3171108;28;19924;-65
2023/10/20 07:14:05;;;;;;;;;;;;;;;19.22;56.23;99294.81;3171736;28;20304;-65
2023/10/20 07:15:36;;;;;;;;;;;;;;;19.50;56.23;99287.06;3160927;28;19946;-65
2023/10/20 07:17:07;;;;;;;;;;;;;;;19.80;55.51;99290.56;3169397;28;20394;-65
2023/10/20 07:18:40;;;;;;;;;;;;;;;20.13;54.67;99294.53;3171078;28;19941;-65
2023/10/20 07:20:11;;;;;;;;;;;;;;;20.37;53.72;99294.88;3171690;28;19924;-64
2023/10/20 07:21:42;;;;;;;;;;;;;;;20.36;52.25;99292.41;3168344;28;19924;-63
2023/10/20 07:23:16;;;;;;;;;;;;;;;20.09;52.03;99290.53;3171909;28;19976;-64
2023/10/20 07:24:47;;;;;;;;;;;;;;;20.00;52.10;99284.28;3167205;27;19923;-65
2023/10/20 07:26:18;;;;;;;;;;;;;;;20.05;51.71;99282.03;3167983;28;19919;-68
2023/10/20 07:27:49;;;;;;;;;;;;;;;20.05;51.70;99284.69;3171646;28;19919;-65
2023/10/20 07:29:21;;;;;;;;;;;;;;;19.96;51.40;99283.72;3171851;28;20073;-66
2023/10/20 07:30:53;;;;;;;;;;;;;;;20.05;51.44;99279.38;3168440;28;19965;-65
2023/10/20 07:32:25;;;;;;;;;;;;;;;20.22;50.93;99291.88;3154797;28;19920;-65
2023/10/20 07:33:58;;;;;;;;;;;;;;;20.12;50.48;99280.50;3171374;28;19931;-68
2023/10/20 07:35:30;;;;;;;;;;;;;;;20.03;49.94;99273.44;3164478;28;20392;-67
2023/10/20 07:37:02;;;;;;;;;;;;;;;19.99;49.89;99279.97;3154337;28;19928;-66
2023/10/20 07:38:33;;;;;;;;;;;;;;;19.94;49.90;99274.28;3166066;28;19924;-67
2023/10/20 07:40:07;;;;;;;;;;;;;;;20.12;49.84;99283.16;3171284;28;20511;-68
2023/10/20 07:41:37;;;;;;;;;;;;;;;20.36;49.74;99284.47;3149347;28;19978;-67
2023/10/20 07:43:11;;;;;;;;;;;;;;;20.54;48.97;99282.75;3167325;28;19973;-67
2023/10/20 07:44:41;;;;;;;;;;;;;;;20.67;48.81;99282.41;3171385;28;19935;-70
2023/10/20 07:46:16;;;;;;;;;;;;;;;20.84;48.27;99275.50;3171561;28;19919;-68
2023/10/20 07:47:48;;;;;;;;;;;;;;;20.92;47.98;99267.69;3170953;28;19955;-64
2023/10/20 07:49:21;;;;;;;;;;;;;;;20.87;47.74;99262.81;3157638;28;19921;-67
2023/10/20 07:50:52;;;;;;;;;;;;;;;20.95;47.95;99269.19;3154431;28;19934;-68
2023/10/20 07:52:23;;;;;;;;;;;;;;;21.20;47.99;99268.44;3150155;28;19927;-68
2023/10/20 07:53:58;;;;;;;;;;;;;;;21.69;47.79;99279.53;3158650;28;19924;-69
2023/10/20 07:55:29;;;;;;;;;;;;;;;22.26;46.93;99271.19;3168343;28;20019;-70
2023/10/20 07:57:01;;;;;;;;;;;;;;;22.80;46.04;99266.44;3162208;28;20404;-69
2023/10/20 07:58:31;;;;;;;;;;;;;;;23.13;45.47;99270.06;3168332;28;19945;-67
2023/10/20 08:00:04;;;;;;;;;;;;;;;23.54;45.08;99261.31;3170820;28;19920;-68
2023/10/20 08:01:34;;;;;;;;;;;;;;;23.87;44.43;99259.53;3170625;28;20376;-65
2023/10/20 08:03:08;;;;;;;;;;;;;;;24.02;43.93;99257.00;3167680;28;19927;-66
2023/10/20 08:04:41;;;;;;;;;;;;;;;24.14;43.77;99253.00;3151332;28;20427;-65
2023/10/20 08:06:12;;;;;;;;;;;;;;;24.28;42.98;99246.97;3150970;28;20007;-66
2023/10/20 08:07:44;;;;;;;;;;;;;;;24.27;43.50;99249.78;3152387;28;19920;-67
2023/10/20 08:09:14;;;;;;;;;;;;;;;24.48;43.68;99244.75;3153901;28;19928;-65
2023/10/20 08:10:47;;;;;;;;;;;;;;;24.57;42.63;99242.06;3148403;28;21078;-66
2023/10/20 08:12:18;;;;;;;;;;;;;;;24.56;42.15;99238.56;3150561;28;19924;-65
2023/10/20 08:13:50;;;;;;;;;;;;;;;24.18;41.93;99238.34;3151406;28;19978;-64
2023/10/20 08:15:22;;;;;;;;;;;;;;;24.09;42.56;99239.34;3151064;28;19924;-69
2023/10/20 08:16:53;;;;;;;;;;;;;;;24.30;42.05;99238.81;3150851;28;19924;-66
2023/10/20 08:18:24;;;;;;;;;;;;;;;24.36;42.23;99238.09;3153988;28;19927;-69